Freeport, Florida
Current Conditions -  °F | °C
As of 10:55 AM on Saturday 25 Oct 2014 (Local Time) from K54J Reporting Station
Clear Clear  
Wind Chill: 69°   Ceiling: Unl
Heat Index: 69°   Visibility: 10mi
Dew Point: 44°   Wind: 9mph
Humidity: 41%   Direction: 10°N
Pressure: 30.1"   Gusts: NA
Location:  30.5°N, 86.14°W
Report Text: K54J 251555Z AUTO 01008KT 10SM CLR 20/07 A3010 RMK AO2 T02030065
Loading
Personal Weather Stations






























Interactive Weather Map
Tropical Storm Tracking
New forecast layout! Learn more

10-Day Weather Forecast

Advertisements
Track Severe Weather on mobile